Detroit, Michigan
Current Conditions -  °F | °C
As of 12:00 PM on Monday 24 Nov 2014 (Local Time) from CYQG Reporting Station
Broken Clouds Broken Clouds  
Wind Chill: 13°   Ceiling: 16000
Heat Index: 13°   Visibility: 15mi
Dew Point: 10°   Wind: 23mph
Humidity: 82%   Direction: 210°SSW
Pressure: 29.14"   Gusts: 32mph
Location:  42.33°N, 83.05°W
Report Text: CYQG 241700Z 21020G28KT 15SM SCT023 BKN160 13/10 A2914 RMK SC4AC2 SLP867 DENSITY ALT 1400FT
Loading
Personal Weather Stations






























Interactive Weather Map New forecast layout! Learn more

10-Day Weather Forecast

Advertisements
Track Severe Weather on mobile